createdAt,value
2018-05-24T00:01:09.656Z,68.62
2018-05-24T00:03:38.673Z,68.92
2018-05-24T00:06:07.231Z,69.04
2018-05-24T00:08:35.975Z,69.11
2018-05-24T00:11:04.536Z,69.03
2018-05-24T00:13:33.144Z,68.98
2018-05-24T00:18:41.035Z,69.25
2018-05-24T00:21:09.612Z,69.33
2018-05-24T00:23:38.151Z,69.43
2018-05-24T00:26:06.690Z,69.55
2018-05-24T00:28:35.542Z,69.42
2018-05-24T00:31:12.829Z,69.50
2018-05-24T00:33:41.535Z,69.63
2018-05-24T00:36:15.405Z,69.62
2018-05-24T00:38:44.094Z,69.54
2018-05-24T00:41:12.707Z,69.42
2018-05-24T00:43:41.548Z,69.32
2018-05-24T00:46:10.099Z,69.53
2018-05-24T00:48:38.649Z,69.48
2018-05-24T00:51:07.677Z,69.69
2018-05-24T00:53:36.199Z,69.75
2018-05-24T00:56:06.513Z,69.64
2018-05-24T00:58:35.340Z,69.51
2018-05-24T01:01:09.535Z,69.43
2018-05-24T01:03:38.079Z,69.54
2018-05-24T01:06:08.320Z,69.56
2018-05-24T01:08:36.868Z,69.66
2018-05-24T01:11:06.654Z,69.60
2018-05-24T01:13:35.587Z,69.65
2018-05-24T01:16:08.372Z,69.76
2018-05-24T01:18:36.915Z,69.78
2018-05-24T01:21:05.823Z,69.63
2018-05-24T01:23:34.820Z,69.65
2018-05-24T01:26:04.456Z,69.74
2018-05-24T01:28:33.007Z,69.77
2018-05-24T01:31:02.201Z,69.77
2018-05-24T01:33:31.172Z,70.17
2018-05-24T01:36:00.831Z,70.43
2018-05-24T01:38:29.408Z,70.72
2018-05-24T01:43:31.872Z,70.70
2018-05-24T01:46:00.401Z,70.87
2018-05-24T01:48:29.056Z,71.00
2018-05-24T01:51:04.244Z,70.88
2018-05-24T01:53:32.898Z,70.82
2018-05-24T01:56:12.112Z,70.67
2018-05-24T01:58:40.662Z,70.86
2018-05-24T02:01:14.550Z,70.81
2018-05-24T02:03:43.533Z,70.75
2018-05-24T02:06:12.140Z,70.75
2018-05-24T02:11:15.052Z,70.63
2018-05-24T02:13:43.676Z,70.67
2018-05-24T02:16:12.178Z,70.62
2018-05-24T02:18:41.135Z,70.53
2018-05-24T02:21:09.726Z,70.51
2018-05-24T02:23:38.549Z,70.50
2018-05-24T02:26:07.442Z,70.59
2018-05-24T02:28:35.975Z,70.75
2018-05-24T02:31:04.868Z,70.88
2018-05-24T02:33:33.824Z,70.82
2018-05-24T02:36:03.432Z,70.63
2018-05-24T02:38:32.088Z,70.54
2018-05-24T02:41:00.632Z,70.44
2018-05-24T02:43:29.583Z,70.16
2018-05-24T02:46:03.835Z,70.26
2018-05-24T02:51:06.127Z,70.18
2018-05-24T02:53:39.668Z,70.09
2018-05-24T02:56:08.224Z,70.11
2018-05-24T02:58:39.631Z,70.11
2018-05-24T03:01:08.573Z,70.17
2018-05-24T03:03:37.577Z,70.26
2018-05-24T03:06:06.130Z,70.31
2018-05-24T03:08:37.924Z,70.31
2018-05-24T03:11:06.503Z,70.38
2018-05-24T03:13:35.355Z,70.42
2018-05-24T03:16:16.756Z,70.52
2018-05-24T03:18:45.631Z,70.49
2018-05-24T03:21:14.561Z,70.60
2018-05-24T03:23:43.311Z,70.63
2018-05-24T03:26:11.849Z,70.68
2018-05-24T03:28:41.075Z,70.72
2018-05-24T03:31:09.613Z,70.67
2018-05-24T03:33:38.160Z,70.75
2018-05-24T03:36:07.061Z,70.81
2018-05-24T03:38:35.664Z,70.78
2018-05-24T03:41:04.296Z,70.87
2018-05-24T03:43:32.976Z,70.86
2018-05-24T03:46:05.170Z,70.73
2018-05-24T03:48:33.716Z,70.70
2018-05-24T03:51:05.157Z,70.61
2018-05-24T03:53:33.721Z,70.59
2018-05-24T03:56:04.567Z,70.50
2018-05-24T04:03:52.268Z,70.50
2018-05-24T04:06:20.905Z,70.90
2018-05-24T04:08:49.524Z,71.14
2018-05-24T04:11:22.192Z,71.09
2018-05-24T04:13:54.344Z,71.26
2018-05-24T04:16:24.091Z,71.41
2018-05-24T04:18:52.801Z,71.42
2018-05-24T04:21:21.842Z,71.39
2018-05-24T04:26:24.437Z,71.55
2018-05-24T04:28:53.299Z,71.82
2018-05-24T04:31:21.807Z,72.08
2018-05-24T04:33:50.569Z,72.19
2018-05-24T04:36:19.775Z,72.16
2018-05-24T04:38:48.340Z,72.24
2018-05-24T04:54:09.674Z,71.45
2018-05-24T04:56:38.547Z,71.62
2018-05-24T04:59:07.068Z,71.64
2018-05-24T05:01:35.710Z,71.71
2018-05-24T05:04:06.403Z,71.80
2018-05-24T05:06:37.602Z,71.77
2018-05-24T05:09:07.259Z,71.73
2018-05-24T05:11:35.944Z,71.79
2018-05-24T05:14:05.937Z,71.85
2018-05-24T05:16:34.521Z,71.81
2018-05-24T05:19:03.601Z,71.67
2018-05-24T05:21:32.547Z,71.65
2018-05-24T05:24:01.599Z,71.57
2018-05-24T05:26:30.275Z,71.47
2018-05-24T05:28:59.500Z,71.42
2018-05-24T05:31:28.130Z,71.59
2018-05-24T05:33:59.723Z,71.61
2018-05-24T05:36:29.099Z,71.63
2018-05-24T05:39:00.643Z,71.52
2018-05-24T05:41:29.363Z,71.47
2018-05-24T05:44:04.475Z,71.54
2018-05-24T05:46:33.081Z,71.50
2018-05-24T05:49:05.244Z,72.05
2018-05-24T05:51:34.234Z,72.29
2018-05-24T05:54:03.998Z,72.40
2018-05-24T05:56:32.596Z,72.74
2018-05-24T05:59:01.688Z,73.06
2018-05-24T06:01:30.413Z,74.03
2018-05-24T06:03:58.887Z,73.69
2018-05-24T06:06:27.980Z,73.66
2018-05-24T06:08:56.523Z,73.51
2018-05-24T06:11:25.080Z,73.51
2018-05-24T06:13:54.010Z,73.37
2018-05-24T06:16:28.294Z,73.41
2018-05-24T06:18:56.986Z,73.48
2018-05-24T06:21:29.834Z,73.33
2018-05-24T06:23:58.600Z,73.24
2018-05-24T06:26:27.216Z,73.02
2018-05-24T06:28:56.998Z,72.85
2018-05-24T06:31:25.575Z,72.93
2018-05-24T06:33:54.119Z,72.90
2018-05-24T06:36:22.989Z,72.58
2018-05-24T06:38:51.628Z,72.54
2018-05-24T06:41:20.517Z,72.25
2018-05-24T06:43:50.087Z,71.92
2018-05-24T06:46:18.674Z,71.77
2018-05-24T06:48:47.381Z,71.48
2018-05-24T06:51:16.247Z,71.24
2018-05-24T06:53:45.083Z,70.99
2018-05-24T06:56:13.652Z,70.58
2018-05-24T06:58:42.705Z,70.49
2018-05-24T07:01:11.321Z,70.51
2018-05-24T07:03:39.844Z,70.56
2018-05-24T07:06:20.131Z,70.75
2018-05-24T07:08:48.693Z,70.48
2018-05-24T07:11:23.471Z,70.06
2018-05-24T07:13:52.186Z,69.43
2018-05-24T07:16:20.778Z,69.21
2018-05-24T07:18:49.693Z,68.57
2018-05-24T07:21:18.382Z,68.37
2018-05-24T07:23:47.149Z,68.59
2018-05-24T07:26:16.074Z,68.21
2018-05-24T07:28:44.750Z,68.32
2018-05-24T07:31:13.716Z,68.04
2018-05-24T07:33:42.756Z,67.87
2018-05-24T07:36:11.716Z,67.83
2018-05-24T07:38:40.272Z,67.60
2018-05-24T07:41:10.687Z,67.68
2018-05-24T07:43:39.271Z,67.61
2018-05-24T07:46:16.452Z,67.45
2018-05-24T07:48:45.487Z,67.26
2018-05-24T07:51:14.111Z,67.19
2018-05-24T07:56:16.628Z,66.85
2018-05-24T07:58:45.427Z,66.88
2018-05-24T08:01:16.073Z,66.85
2018-05-24T08:03:44.987Z,66.59
2018-05-24T08:06:14.783Z,66.47
2018-05-24T08:08:43.420Z,65.76
2018-05-24T08:11:21.928Z,65.64
2018-05-24T08:13:50.480Z,66.40
2018-05-24T08:16:19.073Z,65.78
2018-05-24T08:18:47.916Z,65.50
2018-05-24T08:21:16.559Z,65.17
2018-05-24T08:23:45.481Z,64.50
2018-05-24T08:28:48.298Z,64.07
2018-05-24T08:31:17.248Z,63.98
2018-05-24T08:33:45.973Z,63.83
2018-05-24T08:36:14.793Z,63.61
2018-05-24T08:38:43.344Z,63.56
2018-05-24T08:41:11.969Z,63.59
2018-05-24T08:43:40.758Z,63.24
2018-05-24T08:46:09.274Z,63.71
2018-05-24T08:48:38.127Z,63.55
2018-05-24T08:51:12.121Z,62.93
2018-05-24T08:53:41.195Z,62.64
2018-05-24T08:56:09.855Z,62.63
2018-05-24T08:58:38.642Z,62.22
2018-05-24T09:01:10.562Z,61.65
2018-05-24T09:03:39.105Z,61.35
2018-05-24T09:20:44.121Z,59.81
2018-05-24T09:23:14.273Z,59.57
2018-05-24T09:25:42.823Z,59.37
2018-05-24T09:28:11.362Z,59.24
2018-05-24T09:30:40.536Z,58.91
2018-05-24T09:33:09.500Z,58.28
2018-05-24T09:35:38.032Z,58.23
2018-05-24T09:38:06.897Z,57.70
2018-05-24T09:40:35.464Z,57.14
2018-05-24T09:43:10.871Z,56.94
2018-05-24T09:45:39.689Z,56.58
2018-05-24T09:48:08.367Z,56.41
2018-05-24T09:50:40.151Z,56.22
2018-05-24T09:53:08.740Z,55.79
2018-05-24T09:55:37.601Z,55.93
2018-05-24T09:58:06.658Z,55.31
2018-05-24T10:00:40.208Z,55.13
2018-05-24T10:03:11.556Z,54.56
2018-05-24T10:05:41.981Z,54.29
2018-05-24T10:08:10.872Z,54.38
2018-05-24T10:10:50.614Z,54.13
2018-05-24T10:13:19.595Z,53.22
2018-05-24T10:15:50.598Z,52.37
2018-05-24T10:18:19.083Z,51.74
2018-05-24T10:23:27.594Z,51.59
2018-05-24T10:25:57.502Z,51.69
2018-05-24T10:28:26.081Z,52.67
2018-05-24T10:30:55.953Z,52.27
2018-05-24T10:33:24.659Z,51.78
2018-05-24T10:35:55.016Z,53.02
2018-05-24T10:38:24.207Z,53.49
2018-05-24T10:40:52.817Z,53.09
2018-05-24T10:43:21.573Z,52.90
2018-05-24T10:45:50.463Z,52.14
2018-05-24T10:48:19.256Z,51.26
2018-05-24T10:53:27.803Z,49.22
2018-05-24T10:56:04.094Z,48.36
2018-05-24T10:58:32.843Z,48.07
2018-05-24T11:01:08.134Z,47.85
2018-05-24T11:03:37.476Z,47.96
2018-05-24T11:08:36.713Z,46.46
2018-05-24T11:11:06.203Z,45.75
2018-05-24T11:13:35.576Z,45.02
2018-05-24T11:16:05.857Z,44.97
2018-05-24T11:18:36.488Z,45.07
2018-05-24T11:21:10.161Z,44.79
2018-05-24T11:23:39.235Z,44.53
2018-05-24T11:26:07.837Z,44.38
2018-05-24T11:28:36.419Z,43.19
2018-05-24T11:31:06.053Z,42.76
2018-05-24T11:33:36.722Z,42.70
2018-05-24T11:36:06.636Z,42.45
2018-05-24T11:38:38.164Z,42.03
2018-05-24T11:41:06.764Z,41.95
2018-05-24T11:43:36.746Z,41.42
2018-05-24T11:46:05.851Z,41.30
2018-05-24T11:48:34.459Z,41.23
2018-05-24T11:53:37.247Z,40.54
2018-05-24T11:56:06.490Z,40.57
2018-05-24T11:58:36.218Z,40.40
2018-05-24T12:01:05.916Z,41.30
2018-05-24T12:03:34.459Z,40.67
2018-05-24T12:06:06.504Z,40.48
2018-05-24T12:08:40.149Z,39.42
2018-05-24T12:11:08.683Z,39.88
2018-05-24T12:13:38.314Z,39.27
2018-05-24T12:16:17.759Z,39.13
2018-05-24T12:18:46.848Z,38.56
2018-05-24T12:21:22.567Z,38.48
2018-05-24T12:23:51.619Z,37.44
2018-05-24T12:26:22.641Z,37.45
2018-05-24T12:28:51.352Z,37.55
2018-05-24T12:33:55.501Z,36.21
2018-05-24T12:36:24.489Z,36.05
2018-05-24T12:39:00.128Z,35.63
2018-05-24T12:41:28.664Z,35.25
2018-05-24T12:43:58.148Z,34.88
2018-05-24T12:46:26.778Z,34.15
2018-05-24T12:48:55.608Z,33.28
2018-05-24T12:51:24.348Z,34.02
2018-05-24T12:53:57.853Z,34.36
2018-05-24T12:56:26.618Z,35.05
2018-05-24T12:58:55.742Z,35.55
2018-05-24T13:01:24.376Z,35.95
2018-05-24T13:03:53.960Z,36.05
2018-05-24T13:06:26.475Z,35.76
2018-05-24T13:08:55.080Z,35.71
2018-05-24T13:11:24.119Z,36.22
2018-05-24T13:13:58.945Z,36.58
2018-05-24T13:16:27.485Z,36.77
2018-05-24T13:18:57.936Z,36.45
2018-05-24T13:21:26.605Z,35.38
2018-05-24T13:23:56.316Z,34.00
2018-05-24T13:26:25.428Z,33.37
2018-05-24T13:29:00.209Z,32.87
2018-05-24T13:31:29.173Z,31.70
2018-05-24T13:33:59.398Z,30.21
2018-05-24T13:36:28.154Z,28.74
2018-05-24T13:38:57.812Z,27.22
2018-05-24T13:41:26.781Z,26.02
2018-05-24T13:44:01.095Z,25.36
2018-05-24T13:46:29.853Z,25.20
2018-05-24T13:49:06.702Z,25.97
2018-05-24T13:51:35.593Z,26.19
2018-05-24T13:54:04.961Z,26.93
2018-05-24T13:56:34.971Z,26.72
2018-05-24T13:59:06.531Z,26.67
2018-05-24T14:01:35.142Z,28.19
2018-05-24T14:04:06.297Z,29.33
2018-05-24T14:11:42.555Z,32.97
2018-05-24T14:14:11.786Z,34.14
2018-05-24T14:16:40.798Z,35.05
2018-05-24T14:21:44.772Z,34.08
2018-05-24T14:24:13.447Z,34.25
2018-05-24T14:26:41.987Z,34.97
2018-05-24T14:29:10.869Z,35.91
2018-05-24T14:31:39.459Z,36.37
2018-05-24T14:34:08.380Z,37.02
2018-05-24T14:36:40.273Z,37.13
2018-05-24T14:39:08.827Z,37.39
2018-05-24T14:41:37.338Z,37.63
2018-05-24T14:44:06.363Z,37.96
2018-05-24T14:46:38.571Z,38.91
2018-05-24T14:49:07.196Z,38.94
2018-05-24T14:51:40.723Z,39.23
2018-05-24T14:54:09.537Z,39.29
2018-05-24T14:56:39.641Z,39.34
2018-05-24T14:59:08.224Z,40.11
2018-05-24T15:01:37.621Z,41.22
2018-05-24T15:04:06.631Z,42.09
2018-05-24T15:06:35.226Z,42.59
2018-05-24T15:09:05.090Z,42.92
2018-05-24T15:11:33.979Z,43.33
2018-05-24T15:14:04.041Z,43.99
2018-05-24T15:16:32.912Z,44.44
2018-05-24T15:19:12.737Z,44.42
2018-05-24T15:21:41.275Z,44.76
2018-05-24T15:24:09.836Z,45.29
2018-05-24T15:26:38.843Z,45.67
2018-05-24T15:29:07.947Z,46.10
2018-05-24T15:31:36.477Z,46.65
2018-05-24T15:34:09.109Z,46.61
2018-05-24T15:36:37.786Z,46.99
2018-05-24T15:39:12.374Z,46.76
2018-05-24T15:41:40.909Z,46.91
2018-05-24T15:44:09.459Z,46.61
2018-05-24T15:46:38.602Z,46.52
2018-05-24T15:49:07.536Z,46.42
2018-05-24T15:51:50.611Z,46.39
2018-05-24T15:54:19.562Z,46.28
2018-05-24T15:56:48.332Z,46.10
2018-05-24T15:59:16.943Z,45.97
2018-05-24T16:01:45.928Z,46.10
2018-05-24T16:04:14.595Z,46.49
2018-05-24T16:06:43.182Z,47.34
2018-05-24T16:09:17.170Z,47.43
2018-05-24T16:11:45.995Z,47.24
2018-05-24T16:14:14.630Z,47.04
2018-05-24T16:16:43.621Z,46.42
2018-05-24T16:19:12.511Z,45.85
2018-05-24T16:21:44.661Z,45.58
2018-05-24T16:24:13.304Z,45.67
2018-05-24T16:26:41.861Z,45.68
2018-05-24T16:29:10.753Z,45.81
2018-05-24T16:31:39.359Z,45.67
2018-05-24T16:34:07.986Z,45.46
2018-05-24T16:36:36.910Z,45.97
2018-05-24T16:39:06.309Z,45.85
2018-05-24T16:41:34.936Z,46.15
2018-05-24T16:44:06.454Z,46.68
2018-05-24T16:46:34.999Z,47.34
2018-05-24T16:49:05.242Z,47.75
2018-05-24T16:51:34.060Z,47.92
2018-05-24T16:54:06.991Z,47.96
2018-05-24T16:56:35.829Z,48.04
2018-05-24T16:59:05.623Z,47.66
2018-05-24T17:01:34.207Z,47.33
2018-05-24T17:04:06.667Z,46.91
2018-05-24T17:06:35.200Z,46.65
2018-05-24T17:09:06.698Z,46.58
2018-05-24T17:11:41.266Z,46.93
2018-05-24T17:14:10.086Z,47.39
2018-05-24T17:16:41.815Z,47.61
2018-05-24T17:19:10.369Z,47.75
2018-05-24T17:21:38.940Z,48.02
2018-05-24T17:24:07.771Z,48.22
2018-05-24T17:26:40.098Z,48.63
2018-05-24T17:29:08.663Z,49.08
2018-05-24T17:31:37.485Z,49.52
2018-05-24T17:34:06.371Z,49.88
2018-05-24T17:36:34.907Z,50.04
2018-05-24T17:39:07.497Z,50.26
2018-05-24T17:41:36.053Z,50.59
2018-05-24T17:44:05.329Z,50.90
2018-05-24T17:46:34.169Z,51.29
2018-05-24T17:49:07.544Z,51.46
2018-05-24T17:51:36.080Z,51.56
2018-05-24T17:54:05.677Z,51.65
2018-05-24T17:56:34.202Z,51.83
2018-05-24T17:59:05.495Z,52.02
2018-05-24T18:01:34.464Z,52.11
2018-05-24T18:04:09.221Z,52.17
2018-05-24T18:06:37.941Z,52.29
2018-05-24T18:09:06.643Z,52.25
2018-05-24T18:11:35.195Z,52.39
2018-05-24T18:14:06.508Z,52.54
2018-05-24T18:16:35.100Z,52.65
2018-05-24T18:19:04.261Z,52.95
2018-05-24T18:21:33.140Z,53.06
2018-05-24T18:24:04.025Z,53.18
2018-05-24T18:26:32.644Z,53.27
2018-05-24T18:29:01.259Z,53.47
2018-05-24T18:31:29.973Z,53.46
2018-05-24T18:34:05.725Z,53.37
2018-05-24T18:36:34.312Z,53.42
2018-05-24T18:39:04.107Z,53.42
2018-05-24T18:41:32.679Z,53.61
2018-05-24T18:44:02.546Z,53.62
2018-05-24T18:46:31.165Z,54.17
2018-05-24T18:48:59.719Z,54.79
2018-05-24T18:51:28.584Z,55.00
2018-05-24T18:54:04.612Z,55.23
2018-05-24T18:56:33.543Z,55.76
2018-05-24T18:59:02.696Z,55.76
2018-05-24T19:01:31.378Z,55.92
2018-05-24T19:04:03.906Z,55.98
2018-05-24T19:06:33.329Z,56.05
2018-05-24T19:09:03.103Z,55.80
2018-05-24T19:11:31.949Z,55.78
2018-05-24T19:14:00.492Z,55.82
2018-05-24T19:16:29.083Z,55.95
2018-05-24T19:18:57.608Z,55.93
2018-05-24T19:21:31.990Z,55.95
2018-05-24T19:24:01.031Z,55.85
2018-05-24T19:26:29.860Z,55.94
2018-05-24T19:28:58.598Z,56.07
2018-05-24T19:31:27.560Z,56.20
2018-05-24T19:33:59.744Z,56.31
2018-05-24T19:36:28.970Z,56.32
2018-05-24T19:38:57.908Z,56.44
2018-05-24T19:41:26.463Z,56.44
2018-05-24T19:43:55.036Z,56.53
2018-05-24T19:46:23.612Z,56.68
2018-05-24T19:48:52.841Z,56.81
2018-05-24T19:51:21.571Z,56.83
2018-05-24T19:53:50.553Z,56.81
2018-05-24T19:56:19.210Z,56.99
2018-05-24T19:58:54.020Z,57.17
2018-05-24T20:01:22.906Z,57.17
2018-05-24T20:03:58.413Z,57.21
2018-05-24T20:06:27.312Z,57.29
2018-05-24T20:08:56.829Z,57.26
2018-05-24T20:11:25.478Z,57.37
2018-05-24T20:14:01.493Z,57.40
2018-05-24T20:16:30.604Z,57.53
2018-05-24T20:18:59.245Z,57.64
2018-05-24T20:21:28.343Z,57.88
2018-05-24T20:24:01.690Z,58.13
2018-05-24T20:26:31.619Z,58.23
2018-05-24T20:29:00.761Z,58.43
2018-05-24T20:31:31.336Z,58.58
2018-05-24T20:34:00.129Z,58.65
2018-05-24T20:36:29.167Z,58.85
2018-05-24T20:38:57.860Z,59.12
2018-05-24T20:41:26.432Z,59.20
2018-05-24T20:43:54.976Z,59.23
2018-05-24T20:46:28.292Z,59.14
2018-05-24T20:48:57.212Z,59.20
2018-05-24T20:51:31.771Z,59.19
2018-05-24T20:54:00.745Z,59.29
2018-05-24T20:56:29.590Z,59.50
2018-05-24T20:58:58.152Z,59.74
2018-05-24T21:01:26.670Z,59.93
2018-05-24T21:03:55.460Z,59.99
2018-05-24T21:06:24.042Z,60.11
2018-05-24T21:08:52.664Z,60.25
2018-05-24T21:11:21.207Z,60.34
2018-05-24T21:13:54.114Z,60.38
2018-05-24T21:16:22.647Z,60.47
2018-05-24T21:18:52.180Z,60.54
2018-05-24T21:21:20.778Z,60.70
2018-05-24T21:23:50.127Z,60.85
2018-05-24T21:26:19.059Z,60.92
2018-05-24T21:28:48.335Z,61.10
2018-05-24T21:31:17.285Z,61.23
2018-05-24T21:33:45.933Z,61.20
2018-05-24T21:36:15.288Z,61.29
2018-05-24T21:38:44.185Z,61.49
2018-05-24T21:41:18.543Z,61.62
2018-05-24T21:43:48.537Z,61.61
2018-05-24T21:46:17.117Z,61.71
2018-05-24T21:48:45.787Z,61.92
2018-05-24T21:51:14.659Z,62.07
2018-05-24T21:53:43.243Z,62.20
2018-05-24T21:56:11.877Z,62.45
2018-05-24T21:58:55.683Z,62.48
2018-05-24T22:01:24.274Z,62.52
2018-05-24T22:03:53.139Z,62.68
2018-05-24T22:06:21.707Z,62.87
2018-05-24T22:08:53.721Z,62.93
2018-05-24T22:11:22.679Z,62.98
2018-05-24T22:13:51.553Z,63.11
2018-05-24T22:16:20.193Z,63.13
2018-05-24T22:18:49.843Z,63.46
2018-05-24T22:21:18.679Z,64.01
2018-05-24T22:23:47.898Z,64.20
2018-05-24T22:26:18.654Z,64.58
2018-05-24T22:28:47.578Z,65.23
2018-05-24T22:31:16.215Z,65.37
2018-05-24T22:33:46.208Z,65.50
2018-05-24T22:36:14.990Z,65.51
2018-05-24T22:38:43.656Z,65.62
2018-05-24T22:41:12.768Z,65.90
2018-05-24T22:43:41.310Z,66.08
2018-05-24T22:48:34.847Z,66.49
2018-05-24T22:51:05.309Z,67.00
2018-05-24T22:53:33.915Z,67.67
2018-05-24T22:56:09.599Z,67.93
2018-05-24T22:58:38.163Z,68.02
2018-05-24T23:01:06.773Z,68.26
2018-05-24T23:03:36.478Z,68.57
2018-05-24T23:06:06.948Z,68.92
2018-05-24T23:08:35.798Z,68.92
2018-05-24T23:11:05.022Z,68.82
2018-05-24T23:13:33.606Z,68.88
2018-05-24T23:16:04.088Z,68.94
2018-05-24T23:18:32.830Z,68.92
2018-05-24T23:21:04.999Z,68.89
2018-05-24T23:23:34.229Z,68.99
2018-05-24T23:26:04.919Z,69.02
2018-05-24T23:28:33.681Z,69.08
2018-05-24T23:31:04.983Z,69.13
2018-05-24T23:33:33.572Z,69.27
2018-05-24T23:36:08.632Z,69.41
2018-05-24T23:38:37.549Z,69.76
2018-05-24T23:41:06.110Z,69.81
2018-05-24T23:43:34.699Z,69.69
2018-05-24T23:46:07.650Z,69.82
2018-05-24T23:48:36.187Z,69.79
2018-05-24T23:51:05.382Z,69.78
2018-05-24T23:53:40.496Z,69.79
2018-05-24T23:56:11.709Z,69.77
2018-05-24T23:58:40.741Z,70.00
